Terminal Aerodrome Forecast
Issued by NWS

Home | Current Version | Previous Version | Text Only | Print | Product List | Glossary On
Versions: 1 2 3 4 5 6 7 8 9 10 11 12
000
FTUS45 KVEF 011700
TAFDAG
TAF
KDAG 011725Z 0118/0218 28008KT P6SM SKC
     FM012000 VRB03KT P6SM SCT250
     FM020400 27007KT P6SM BKN250=

USA.gov is the U.S. government's official web portal to all federal, state and local government web resources and services.